Terminal Aerodrome Forecast
Issued by NWS

Home | Current Version | Previous Version | Text Only | Print | Product List | Glossary On
Versions: 1 2 3 4 5 6 7 8 9 10 11 12 13 14 15 16
374
FTUS43 KILX 211145
TAFCMI
TAF
KCMI 211145Z 2112/2212 17009KT 1/4SM FG OVC002
     FM211600 17009KT 1SM BR OVC003
     FM220400 17010KT 3SM BR VCSH OVC003
     FM220800 17011G19KT 5SM -SHRA OVC003=

USA.gov is the U.S. government's official web portal to all federal, state and local government web resources and services.